createdAt,value
2022-08-04T00:02:06.308Z,6.82
2022-08-04T00:04:35.404Z,11.30
2022-08-04T00:07:45.910Z,13.98
2022-08-04T00:10:16.564Z,11.93
2022-08-04T00:12:48.631Z,9.75
2022-08-04T00:15:17.110Z,7.28
2022-08-04T00:17:50.794Z,6.10
2022-08-04T00:20:20.075Z,5.40
2022-08-04T00:22:48.575Z,6.72
2022-08-04T00:25:16.869Z,7.80
2022-08-04T00:27:44.170Z,8.30
2022-08-04T00:30:11.128Z,16.67
2022-08-04T00:32:41.500Z,15.00
2022-08-04T00:35:14.008Z,17.52
2022-08-04T00:37:44.594Z,16.05
2022-08-04T00:40:42.426Z,13.65
2022-08-04T00:43:30.769Z,12.65
2022-08-04T00:46:19.075Z,9.13
2022-08-04T00:49:14.209Z,13.50
2022-08-04T00:51:46.801Z,11.85
2022-08-04T00:54:42.229Z,18.00
2022-08-04T00:57:35.461Z,15.18
2022-08-04T01:00:12.264Z,15.07
2022-08-04T01:02:53.894Z,14.48
2022-08-04T01:05:56.318Z,13.40
2022-08-04T01:08:31.900Z,14.57
2022-08-04T01:11:24.613Z,10.95
2022-08-04T01:14:06.213Z,9.82
2022-08-04T01:16:39.386Z,11.45
2022-08-04T01:19:23.282Z,11.85
2022-08-04T01:22:16.073Z,12.38
2022-08-04T01:25:11.813Z,15.25
2022-08-04T01:28:03.370Z,11.88
2022-08-04T01:30:33.875Z,15.35
2022-08-04T01:33:09.123Z,16.15
2022-08-04T01:35:47.550Z,10.00
2022-08-04T01:38:30.677Z,10.32
2022-08-04T01:41:02.985Z,11.77
2022-08-04T01:43:31.121Z,19.13
2022-08-04T01:46:00.731Z,12.93
2022-08-04T01:48:28.579Z,9.77
2022-08-04T01:51:03.325Z,12.27
2022-08-04T01:53:33.505Z,14.23
2022-08-04T01:56:03.175Z,14.85
2022-08-04T01:58:31.788Z,17.65
2022-08-04T02:01:05.082Z,12.68
2022-08-04T02:04:20.283Z,13.48
2022-08-04T02:06:50.643Z,13.23
2022-08-04T02:09:54.319Z,12.25
2022-08-04T02:12:43.647Z,11.52
2022-08-04T02:15:30.725Z,15.52
2022-08-04T02:18:03.691Z,11.07
2022-08-04T02:20:37.641Z,16.63
2022-08-04T02:23:14.617Z,16.83
2022-08-04T02:25:47.683Z,17.77
2022-08-04T02:28:29.525Z,10.38
2022-08-04T02:31:08.261Z,18.00
2022-08-04T02:33:44.600Z,17.08
2022-08-04T02:36:21.349Z,18.75
2022-08-04T02:38:56.997Z,15.60
2022-08-04T02:41:26.553Z,17.77
2022-08-04T02:43:58.460Z,20.33
2022-08-04T02:46:25.882Z,15.38
2022-08-04T02:48:54.233Z,17.23
2022-08-04T02:51:34.956Z,16.83
2022-08-04T02:54:06.246Z,15.55
2022-08-04T02:56:35.587Z,7.47
2022-08-04T02:59:06.132Z,12.85
2022-08-04T03:01:34.382Z,13.18
2022-08-04T03:04:25.034Z,14.55
2022-08-04T03:07:07.046Z,14.77
2022-08-04T03:10:06.125Z,12.20
2022-08-04T03:13:09.903Z,16.17
2022-08-04T03:15:58.461Z,12.25
2022-08-04T03:19:02.429Z,25.13
2022-08-04T03:21:29.177Z,23.85
2022-08-04T03:24:10.045Z,16.73
2022-08-04T03:27:07.237Z,19.05
2022-08-04T03:30:01.930Z,16.80
2022-08-04T03:32:51.193Z,13.45
2022-08-04T03:35:39.782Z,16.05
2022-08-04T03:38:24.653Z,20.65
2022-08-04T03:41:15.485Z,17.42
2022-08-04T03:44:10.031Z,19.40
2022-08-04T03:46:39.841Z,21.75
2022-08-04T03:49:20.345Z,17.85
2022-08-04T03:52:39.658Z,25.25
2022-08-04T03:55:24.964Z,19.90
2022-08-04T03:58:13.386Z,20.58
2022-08-04T04:01:00.944Z,23.20
2022-08-04T04:03:55.154Z,27.90
2022-08-04T04:06:37.537Z,21.73
2022-08-04T04:09:54.803Z,27.00
2022-08-04T04:12:33.512Z,27.35
2022-08-04T04:15:18.994Z,25.50
2022-08-04T04:18:07.370Z,27.42
2022-08-04T04:20:59.324Z,20.95
2022-08-04T04:24:19.638Z,22.17
2022-08-04T04:27:01.634Z,23.77
2022-08-04T04:29:57.163Z,22.63
2022-08-04T04:32:44.669Z,19.48
2022-08-04T04:35:19.618Z,21.58
2022-08-04T04:37:48.703Z,19.15
2022-08-04T04:40:37.890Z,20.73
2022-08-04T04:43:19.928Z,24.23
2022-08-04T04:45:46.609Z,21.65
2022-08-04T04:48:31.995Z,23.92
2022-08-04T04:51:15.488Z,23.10
2022-08-04T04:54:00.594Z,23.75
2022-08-04T04:56:48.950Z,17.67
2022-08-04T04:59:22.393Z,22.58
2022-08-04T05:02:00.466Z,22.15
2022-08-04T05:04:48.832Z,24.52
2022-08-04T05:07:28.332Z,21.65
2022-08-04T05:10:01.206Z,22.20
2022-08-04T05:14:32.596Z,17.40
2022-08-04T05:15:43.604Z,17.33
2022-08-04T05:18:16.596Z,18.60
2022-08-04T05:20:48.913Z,20.88
2022-08-04T05:23:19.753Z,16.92
2022-08-04T05:26:07.957Z,25.05
2022-08-04T05:28:52.079Z,20.25
2022-08-04T05:31:33.041Z,25.08
2022-08-04T05:34:09.691Z,20.00
2022-08-04T05:36:46.950Z,20.33
2022-08-04T05:39:21.839Z,18.83
2022-08-04T05:41:55.305Z,19.13
2022-08-04T05:44:26.865Z,22.55
2022-08-04T05:46:57.564Z,19.65
2022-08-04T05:49:26.235Z,18.85
2022-08-04T05:51:56.084Z,22.55
2022-08-04T05:56:51.170Z,19.63
2022-08-04T05:59:20.060Z,26.25
2022-08-04T06:01:56.512Z,20.73
2022-08-04T06:04:45.523Z,21.30
2022-08-04T06:07:15.352Z,23.40
2022-08-04T06:12:18.360Z,21.08
2022-08-04T06:14:47.908Z,27.33
2022-08-04T06:19:59.449Z,22.02
2022-08-04T06:20:32.614Z,27.80
2022-08-04T06:23:05.257Z,31.20
2022-08-04T06:25:34.601Z,23.92
2022-08-04T06:28:02.249Z,27.55
2022-08-04T06:30:32.820Z,27.38
2022-08-04T06:33:05.185Z,31.00
2022-08-04T06:35:34.119Z,27.17
2022-08-04T06:38:03.159Z,40.97
2022-08-04T06:40:33.671Z,31.33
2022-08-04T06:43:03.376Z,31.33
2022-08-04T06:45:31.934Z,27.52
2022-08-04T06:48:00.258Z,28.05
2022-08-04T06:51:26.533Z,25.58
2022-08-04T06:53:14.592Z,38.45
2022-08-04T06:55:43.842Z,31.35
2022-08-04T06:58:11.108Z,26.55
2022-08-04T07:00:40.102Z,26.48
2022-08-04T07:03:07.855Z,26.13
2022-08-04T07:05:36.089Z,25.83
2022-08-04T07:08:03.133Z,19.80
2022-08-04T07:10:31.633Z,24.60
2022-08-04T07:13:03.161Z,22.50
2022-08-04T07:15:31.669Z,29.98
2022-08-04T07:18:00.466Z,27.60
2022-08-04T07:20:34.240Z,24.17
2022-08-04T07:23:04.419Z,22.92
2022-08-04T07:26:10.953Z,21.48
2022-08-04T07:28:20.329Z,26.70
2022-08-04T07:30:48.439Z,33.08
2022-08-04T07:33:19.244Z,31.63
2022-08-04T07:36:05.986Z,26.35
2022-08-04T07:38:37.471Z,22.95
2022-08-04T07:43:55.037Z,25.38
2022-08-04T07:46:22.255Z,28.27
2022-08-04T07:48:49.321Z,36.00
2022-08-04T07:51:17.400Z,34.10
2022-08-04T07:53:53.237Z,46.97
2022-08-04T07:56:22.478Z,26.27
2022-08-04T07:58:49.921Z,38.50
2022-08-04T08:01:19.085Z,36.53
2022-08-04T08:03:47.387Z,39.83
2022-08-04T08:06:30.917Z,34.90
2022-08-04T08:09:02.040Z,38.70
2022-08-04T08:12:38.285Z,52.08
2022-08-04T08:14:28.498Z,44.67
2022-08-04T08:16:55.446Z,49.42
2022-08-04T08:19:22.542Z,52.92
2022-08-04T08:21:59.723Z,45.10
2022-08-04T08:24:32.091Z,41.58
2022-08-04T08:27:00.628Z,35.97
2022-08-04T08:29:29.587Z,40.40
2022-08-04T08:32:01.431Z,46.70
2022-08-04T08:34:33.116Z,40.58
2022-08-04T08:37:10.015Z,38.70
2022-08-04T08:39:48.956Z,38.72
2022-08-04T08:42:54.124Z,42.67
2022-08-04T08:45:51.890Z,35.85
2022-08-04T08:48:28.735Z,36.88
2022-08-04T08:51:01.427Z,48.92
2022-08-04T08:53:45.057Z,44.58
2022-08-04T08:57:04.170Z,41.55
2022-08-04T08:59:36.700Z,42.08
2022-08-04T09:02:25.195Z,45.25
2022-08-04T09:05:07.013Z,36.50
2022-08-04T09:07:44.570Z,40.08
2022-08-04T09:10:20.147Z,37.38
2022-08-04T09:12:53.719Z,40.30
2022-08-04T09:15:48.171Z,43.28
2022-08-04T09:18:54.405Z,41.00
2022-08-04T09:21:40.670Z,48.35
2022-08-04T09:24:35.668Z,42.05
2022-08-04T09:27:31.047Z,42.65
2022-08-04T09:30:09.672Z,46.53
2022-08-04T09:32:39.442Z,42.33
2022-08-04T09:35:40.286Z,48.20
2022-08-04T09:38:47.968Z,44.13
2022-08-04T09:41:48.195Z,45.75
2022-08-04T09:44:53.266Z,39.55
2022-08-04T09:47:53.314Z,42.88
2022-08-04T09:50:25.749Z,40.70
2022-08-04T09:52:56.977Z,50.47
2022-08-04T09:55:54.115Z,38.92
2022-08-04T09:58:49.370Z,44.72
2022-08-04T10:01:24.868Z,34.13
2022-08-04T10:04:03.808Z,39.88
2022-08-04T10:06:39.920Z,32.83
2022-08-04T10:09:28.784Z,38.67
2022-08-04T10:12:27.324Z,41.93
2022-08-04T10:15:13.092Z,35.88
2022-08-04T10:17:52.127Z,32.33
2022-08-04T10:20:51.701Z,37.03
2022-08-04T10:23:55.576Z,37.95
2022-08-04T10:26:43.033Z,37.75
2022-08-04T10:29:18.619Z,40.13
2022-08-04T10:31:54.673Z,32.35
2022-08-04T10:34:26.617Z,32.95
2022-08-04T10:37:59.450Z,37.60
2022-08-04T10:40:38.378Z,30.42
2022-08-04T10:46:16.712Z,35.63
2022-08-04T10:48:47.324Z,34.22
2022-08-04T10:51:57.363Z,27.13
2022-08-04T10:54:51.192Z,31.35
2022-08-04T10:57:32.879Z,33.95
2022-08-04T11:00:10.630Z,32.53
2022-08-04T11:02:47.385Z,30.30
2022-08-04T11:05:31.942Z,28.15
2022-08-04T11:08:14.412Z,25.45
2022-08-04T11:10:55.948Z,24.35
2022-08-04T11:13:29.789Z,25.65
2022-08-04T11:16:04.467Z,23.33
2022-08-04T11:18:50.095Z,27.73
2022-08-04T11:21:32.698Z,22.48
2022-08-04T11:24:11.999Z,24.70
2022-08-04T11:26:48.484Z,27.30
2022-08-04T11:29:27.281Z,20.52
2022-08-04T11:31:59.239Z,20.65
2022-08-04T11:34:28.386Z,24.05
2022-08-04T11:37:27.763Z,20.88
2022-08-04T11:40:23.278Z,22.27
2022-08-04T11:43:01.661Z,27.60
2022-08-04T11:45:37.584Z,22.20
2022-08-04T11:48:23.075Z,23.23
2022-08-04T11:50:54.374Z,20.33
2022-08-04T11:53:24.494Z,20.60
2022-08-04T11:56:09.543Z,18.80
2022-08-04T11:58:38.663Z,19.40
2022-08-04T12:01:23.866Z,21.08
2022-08-04T12:04:13.389Z,20.42
2022-08-04T12:10:02.004Z,19.20
2022-08-04T12:12:38.092Z,17.42
2022-08-04T12:15:17.228Z,18.95
2022-08-04T12:17:57.599Z,16.30
2022-08-04T12:20:38.376Z,19.60
2022-08-04T12:23:23.261Z,13.23
2022-08-04T12:25:54.972Z,13.77
2022-08-04T12:29:08.371Z,13.52
2022-08-04T12:31:52.918Z,13.73
2022-08-04T12:34:40.884Z,13.98
2022-08-04T12:37:39.020Z,13.30
2022-08-04T12:40:28.955Z,12.65
2022-08-04T12:43:03.971Z,10.93
2022-08-04T12:45:31.494Z,14.68
2022-08-04T12:48:00.900Z,13.02
2022-08-04T12:50:28.997Z,10.68
2022-08-04T12:53:02.245Z,13.50
2022-08-04T12:55:33.662Z,11.18
2022-08-04T12:58:03.037Z,13.35
2022-08-04T13:00:41.769Z,11.35
2022-08-04T13:05:43.037Z,14.45
2022-08-04T13:08:11.716Z,15.13
2022-08-04T13:10:42.593Z,13.70
2022-08-04T13:13:17.582Z,15.43
2022-08-04T13:15:56.523Z,17.92
2022-08-04T13:18:30.098Z,12.45
2022-08-04T13:21:19.444Z,13.45
2022-08-04T13:24:09.892Z,16.83
2022-08-04T13:26:55.257Z,12.30
2022-08-04T13:30:00.085Z,11.02
2022-08-04T13:34:48.907Z,12.25
2022-08-04T13:37:22.437Z,10.95
2022-08-04T13:39:55.237Z,9.48
2022-08-04T13:42:26.158Z,11.80
2022-08-04T13:45:01.083Z,15.13
2022-08-04T13:47:34.343Z,14.05
2022-08-04T13:50:14.055Z,18.20
2022-08-04T13:52:43.052Z,13.98
2022-08-04T13:55:31.362Z,12.10
2022-08-04T13:58:25.390Z,13.35
2022-08-04T14:01:00.303Z,12.48
2022-08-04T14:03:54.254Z,15.02
2022-08-04T14:06:51.342Z,12.68
2022-08-04T14:09:21.422Z,14.90
2022-08-04T14:12:10.136Z,15.35
2022-08-04T14:14:47.444Z,17.55
2022-08-04T14:17:20.620Z,14.30
2022-08-04T14:20:00.355Z,13.23
2022-08-04T14:22:27.230Z,16.52
2022-08-04T14:25:09.235Z,15.88
2022-08-04T14:27:43.674Z,14.63
2022-08-04T14:30:23.774Z,14.05
2022-08-04T14:34:02.902Z,18.88
2022-08-04T14:35:58.859Z,17.00
2022-08-04T14:38:46.315Z,21.55
2022-08-04T14:41:14.785Z,18.30
2022-08-04T14:43:47.710Z,21.88
2022-08-04T14:46:15.441Z,19.25
2022-08-04T14:49:10.638Z,19.58
2022-08-04T14:51:57.273Z,18.88
2022-08-04T14:54:33.131Z,19.27
2022-08-04T14:57:05.858Z,20.90
2022-08-04T14:59:59.535Z,19.00
2022-08-04T15:02:29.811Z,17.85
2022-08-04T15:04:58.005Z,18.25
2022-08-04T15:07:25.751Z,23.33
2022-08-04T15:09:52.970Z,17.10
2022-08-04T15:12:20.921Z,16.83
2022-08-04T15:14:48.358Z,19.85
2022-08-04T15:17:29.153Z,19.50
2022-08-04T15:19:57.348Z,16.70
2022-08-04T15:22:24.537Z,15.85
2022-08-04T15:24:54.825Z,15.10
2022-08-04T15:27:27.543Z,18.95
2022-08-04T15:30:02.576Z,16.38
2022-08-04T15:32:36.457Z,17.40
2022-08-04T15:35:09.177Z,15.05
2022-08-04T15:37:57.792Z,15.98
2022-08-04T15:40:32.889Z,17.43
2022-08-04T15:43:15.745Z,19.45
2022-08-04T15:46:41.364Z,20.52
2022-08-04T15:48:39.105Z,18.88
2022-08-04T15:51:14.188Z,14.63
2022-08-04T15:54:02.234Z,14.10
2022-08-04T15:56:28.371Z,13.88
2022-08-04T15:58:57.365Z,15.80
2022-08-04T16:01:24.624Z,17.75
2022-08-04T16:03:59.754Z,15.55
2022-08-04T16:06:29.423Z,15.07
2022-08-04T16:09:01.814Z,14.53
2022-08-04T16:11:33.299Z,14.52
2022-08-04T16:14:04.815Z,18.48
2022-08-04T16:16:41.269Z,14.70
2022-08-04T16:19:51.757Z,13.95
2022-08-04T16:22:40.193Z,13.57
2022-08-04T16:25:09.308Z,11.90
2022-08-04T16:27:44.511Z,13.13
2022-08-04T16:30:14.590Z,18.13
2022-08-04T16:32:46.797Z,15.43
2022-08-04T16:35:26.414Z,15.25
2022-08-04T16:40:38.565Z,11.60
2022-08-04T16:43:18.134Z,14.23
2022-08-04T16:45:55.587Z,16.25
2022-08-04T16:48:27.313Z,15.63
2022-08-04T16:50:57.672Z,16.08
2022-08-04T16:53:53.205Z,14.40
2022-08-04T16:56:30.477Z,13.57
2022-08-04T16:59:10.013Z,11.75
2022-08-04T17:01:38.387Z,16.60
2022-08-04T17:04:06.026Z,16.30
2022-08-04T17:06:41.775Z,13.93
2022-08-04T17:09:14.561Z,16.35
2022-08-04T17:11:43.494Z,14.60
2022-08-04T17:14:11.068Z,13.10
2022-08-04T17:16:40.456Z,12.70
2022-08-04T17:19:24.169Z,16.00
2022-08-04T17:22:05.983Z,14.98
2022-08-04T17:28:10.040Z,10.73
2022-08-04T17:29:54.069Z,11.23
2022-08-04T17:32:22.466Z,11.55
2022-08-04T17:34:59.558Z,14.95
2022-08-04T17:37:36.747Z,9.30
2022-08-04T17:40:13.323Z,8.75
2022-08-04T17:42:41.966Z,10.88
2022-08-04T17:47:59.018Z,10.70
2022-08-04T17:50:34.901Z,14.52
2022-08-04T17:53:11.484Z,12.85
2022-08-04T17:55:47.144Z,12.10
2022-08-04T17:58:23.211Z,11.20
2022-08-04T18:01:16.678Z,7.55
2022-08-04T18:03:53.039Z,10.68
2022-08-04T18:06:22.356Z,6.90
2022-08-04T18:08:58.854Z,9.88
2022-08-04T18:11:28.740Z,14.65
2022-08-04T18:14:08.661Z,7.03
2022-08-04T18:16:44.478Z,8.63
2022-08-04T18:19:13.213Z,7.55
2022-08-04T18:21:46.234Z,10.30
2022-08-04T18:24:36.009Z,9.45
2022-08-04T18:27:21.872Z,7.72
2022-08-04T18:29:56.491Z,11.82
2022-08-04T18:32:36.357Z,10.13
2022-08-04T18:35:05.752Z,10.98
2022-08-04T18:38:06.324Z,13.20
2022-08-04T18:40:27.909Z,10.35
2022-08-04T18:43:00.375Z,9.95
2022-08-04T18:45:34.563Z,10.13
2022-08-04T18:48:14.587Z,11.77
2022-08-04T18:53:35.466Z,9.73
2022-08-04T18:56:06.285Z,10.63
2022-08-04T18:58:42.772Z,8.63
2022-08-04T19:01:14.344Z,9.43
2022-08-04T19:03:44.646Z,9.10
2022-08-04T19:06:15.921Z,8.30
2022-08-04T19:08:44.890Z,11.00
2022-08-04T19:11:16.746Z,8.73
2022-08-04T19:14:02.462Z,7.13
2022-08-04T19:16:30.938Z,8.77
2022-08-04T19:19:00.590Z,9.55
2022-08-04T19:24:34.021Z,9.05
2022-08-04T19:27:06.548Z,9.45
2022-08-04T19:29:44.014Z,9.45
2022-08-04T19:32:16.055Z,13.68
2022-08-04T19:34:45.862Z,13.32
2022-08-04T19:37:56.915Z,11.40
2022-08-04T19:40:04.759Z,9.00
2022-08-04T19:42:31.929Z,8.38
2022-08-04T19:44:58.709Z,5.30
2022-08-04T19:48:21.130Z,10.63
2022-08-04T19:50:14.253Z,9.65
2022-08-04T19:52:51.578Z,9.63
2022-08-04T19:55:36.811Z,9.82
2022-08-04T19:58:08.239Z,8.82
2022-08-04T20:00:37.491Z,5.95
2022-08-04T20:03:11.721Z,10.05
2022-08-04T20:05:53.627Z,9.30
2022-08-04T20:08:24.163Z,11.30
2022-08-04T20:10:52.315Z,7.83
2022-08-04T20:13:25.185Z,8.55
2022-08-04T20:15:59.276Z,9.75
2022-08-04T20:18:35.544Z,12.05
2022-08-04T20:21:19.676Z,8.18
2022-08-04T20:24:37.792Z,8.02
2022-08-04T20:26:48.828Z,6.85
2022-08-04T20:29:39.928Z,9.77
2022-08-04T20:32:08.663Z,12.77
2022-08-04T20:34:36.307Z,12.55
2022-08-04T20:37:03.321Z,8.35
2022-08-04T20:39:31.257Z,11.80
2022-08-04T20:41:58.709Z,6.13
2022-08-04T20:44:25.658Z,10.10
2022-08-04T20:46:52.514Z,17.25
2022-08-04T20:49:19.378Z,12.70
2022-08-04T20:51:46.420Z,12.85
2022-08-04T20:54:26.486Z,15.63
2022-08-04T20:56:54.112Z,11.50
2022-08-04T20:59:21.146Z,15.80
2022-08-04T21:01:53.704Z,11.48
2022-08-04T21:04:32.995Z,8.27
2022-08-04T21:07:01.514Z,8.63
2022-08-04T21:09:38.658Z,9.20
2022-08-04T21:12:10.934Z,9.88
2022-08-04T21:15:01.556Z,11.30
2022-08-04T21:17:58.494Z,7.82
2022-08-04T21:20:28.602Z,12.27
2022-08-04T21:22:59.565Z,11.48
2022-08-04T21:25:28.785Z,7.32
2022-08-04T21:30:54.277Z,8.25
2022-08-04T21:33:28.238Z,7.50
2022-08-04T21:36:12.395Z,7.20
2022-08-04T21:38:39.597Z,11.68
2022-08-04T21:41:09.513Z,9.68
2022-08-04T21:43:42.947Z,11.23
2022-08-04T21:46:11.674Z,7.93
2022-08-04T21:48:38.996Z,10.45
2022-08-04T21:51:22.004Z,14.90
2022-08-04T21:54:06.560Z,8.00
2022-08-04T21:56:34.311Z,8.55
2022-08-04T21:59:02.600Z,12.85
2022-08-04T22:01:51.955Z,11.05
2022-08-04T22:04:19.917Z,8.95
2022-08-04T22:06:51.643Z,12.98
2022-08-04T22:09:21.812Z,8.52
2022-08-04T22:11:51.044Z,11.90
2022-08-04T22:17:13.436Z,8.18
2022-08-04T22:19:54.948Z,11.95
2022-08-04T22:22:26.196Z,15.40
2022-08-04T22:25:00.531Z,13.48
2022-08-04T22:27:47.358Z,8.35
2022-08-04T22:30:17.127Z,9.75
2022-08-04T22:35:37.541Z,11.82
2022-08-04T22:38:06.690Z,10.82
2022-08-04T22:40:50.010Z,10.93
2022-08-04T22:43:32.654Z,18.00
2022-08-04T22:46:03.786Z,6.82
2022-08-04T22:48:33.929Z,9.30
2022-08-04T22:51:02.692Z,6.75
2022-08-04T22:53:30.258Z,11.30
2022-08-04T22:56:09.700Z,7.25
2022-08-04T22:58:45.348Z,10.25
2022-08-04T23:01:17.439Z,12.27
2022-08-04T23:03:50.913Z,6.93
2022-08-04T23:06:25.068Z,12.05
2022-08-04T23:08:52.415Z,9.30
2022-08-04T23:11:19.555Z,21.35
2022-08-04T23:13:47.282Z,12.20
2022-08-04T23:16:15.915Z,11.70
2022-08-04T23:18:45.216Z,6.22
2022-08-04T23:21:15.394Z,13.38
2022-08-04T23:23:47.870Z,6.20
2022-08-04T23:26:27.992Z,9.15
2022-08-04T23:28:57.609Z,11.98
2022-08-04T23:31:28.208Z,15.27
2022-08-04T23:34:08.477Z,10.20
2022-08-04T23:36:35.662Z,12.23
2022-08-04T23:39:05.740Z,23.02
2022-08-04T23:41:55.430Z,9.77
2022-08-04T23:44:25.873Z,12.35
2022-08-04T23:47:04.523Z,9.85
2022-08-04T23:49:43.348Z,12.23
2022-08-04T23:52:28.193Z,10.23
2022-08-04T23:55:01.092Z,14.27
2022-08-04T23:57:31.530Z,17.45
